• Join FlightAware (Why Join?)
  • Login
  • US Flag 
03:15AM EDT


 

Airport Tracker/Info


-or-


 

Live Flight TrackerFlight Track Log ✈ UAL4679 ✈ 19-Dec-2013 ✈ KEWR - KJAX

Flight Track Log - Related Links

Times and Time Zones

All times are in EST time to prevent confusion due to time zone crossing. See the UAL4679 flight status page for this flight to view local times or setup timezone preferences in your user account.

Time Position Orientation Groundspeed Altitude Reporting Facility
EST Latitude Longitude Course Direction KTS MPH feet Rate Location/Type
11:33AM 40.6667 -74.1833 218° Southwest 163 188 1,400  Level New York TRACON
11:34AM 40.6167 -74.2000 194° South 202 232 3,000 2,220 Climbing New York TRACON
11:35AM 40.5667 -74.2333 207° Southwest 230 265 5,900 900 Climbing New York TRACON
11:36AM 40.3315 -74.4783 180° South  Level Estimated
11:37AM 40.2411 -74.5552 207° Southwest  Level Estimated
11:37AM 40.4011 -74.2050 173° South 272 313 6,000  Level New York Center
11:38AM 40.1507 -74.6319 218° Southwest  Level Estimated
11:38AM 40.3447 -74.1394 138° Southeast 272 313 6,900  Level New York Center
11:39AM 40.2972 -74.0500 125° Southeast 286 329 10,000 2,460 Climbing New York Center
11:40AM 40.2561 -74.1053 226° Southwest 181 208 11,900 2,040 Climbing New York Center
11:41AM 40.2372 -74.1858 253° West 212 244 14,100 1,680 Climbing New York Center
11:42AM 40.1550 -74.2144 195° South 239 275 15,300 1,260 Climbing New York Center
11:43AM 40.0478 -74.2444 192° South 310 357 16,700 1,320 Climbing New York Center
11:45AM 39.9214 -74.3361 209° Southwest 357 411 18,700 1,200 Climbing Washington Center
11:46AM 39.8492 -74.4050 216° Southwest 362 417 19,900 1,320 Climbing Washington Center
11:47AM 39.7669 -74.5008 222° Southwest 367 422 21,300 1,440 Climbing Washington Center
11:48AM 39.7050 -74.5856 226° Southwest 362 417 22,800 1,500 Climbing Washington Center
11:49AM 39.6289 -74.6864 226° Southwest 362 417 24,400 1,440 Climbing Washington Center
11:50AM 39.5628 -74.7706 224° Southwest 362 417 25,700 1,320 Climbing Washington Center
11:51AM 39.4883 -74.8736 227° Southwest 357 411 27,100 1,320 Climbing Washington Center
11:52AM 39.4242 -74.9522 223° Southwest 357 411 28,400 1,380 Climbing Washington Center
11:53AM 39.3478 -75.0547 226° Southwest 357 411 29,900 1,320 Climbing Washington Center
11:54AM 39.2750 -75.1225 216° Southwest 365 420 31,000 1,140 Climbing Washington Center
11:55AM 39.1628 -75.1714 199° South 380 437 32,300 1,080 Climbing Washington Center
11:56AM 39.0522 -75.2175 198° South 408 470 33,300 780 Climbing Washington Center
11:57AM 38.9483 -75.2606 198° South 408 470 33,900 300 Climbing Washington Center
11:58AM 38.8378 -75.3092 199° South 408 470 34,000  Climbing Washington Center
11:59AM 38.7211 -75.3575 198° South 425 489 34,000  Level Washington Center
12:00PM 38.6006 -75.4083 198° South 438 504 34,100 420 Climbing Washington Center
12:01PM 38.4817 -75.4511 196° South 452 520 34,900 780 Climbing Washington Center
12:02PM 38.3650 -75.5017 199° South 452 520 35,700 540 Climbing Washington Center
12:03PM 38.2669 -75.5839 213° Southwest 435 501 36,000 120 Climbing Washington Center
12:04PM 38.1711 -75.6708 216° Southwest 428 493 36,000  Level Washington Center
12:05PM 38.0750 -75.7631 217° Southwest 434 499 36,000  Level Washington Center
12:06PM 37.9789 -75.8525 216° Southwest 434 499 36,000  Level Washington Center
12:07PM 37.8828 -75.9444 217° Southwest 434 499 36,000  Level Washington Center
12:08PM 37.7864 -76.0333 216° Southwest 434 499 36,000  Level Washington Center
12:09PM 37.6986 -76.1219 219° Southwest 439 505 36,000  Level Washington Center
12:10PM 37.5917 -76.2131 214° Southwest 434 499 36,000  Level Washington Center
12:11PM 37.4953 -76.3011 216° Southwest 434 499 36,000  Level Washington Center
12:12PM 37.3989 -76.3917 217° Southwest 434 499 36,000  Level Washington Center
12:13PM 37.3022 -76.4794 216° Southwest 434 499 36,000  Level Washington Center
12:14PM 37.2036 -76.5669 215° Southwest 434 499 36,000  Level Washington Center
12:15PM 37.1089 -76.6544 216° Southwest 429 494 36,000  Level Washington Center
12:16PM 37.0142 -76.7417 216° Southwest 429 494 36,000  Level Washington Center
12:17PM 36.9175 -76.8258 215° Southwest 429 494 36,000  Level Washington Center
12:18PM 36.8247 -76.9125 217° Southwest 429 494 36,000  Level Washington Center
12:19PM 36.7300 -76.9992 216° Southwest 429 494 36,000  Level Washington Center
12:20PM 36.6350 -77.0881 217° Southwest 434 499 36,000  Level Washington Center
12:21PM 36.5419 -77.1767 217° Southwest 434 499 36,000  Level Washington Center
12:22PM 36.4469 -77.2653 217° Southwest 434 499 36,000  Level Washington Center
12:23PM 36.3517 -77.3561 218° Southwest 439 505 36,000  Level Washington Center
12:24PM 36.2544 -77.4467 217° Southwest 439 505 36,000  Level Washington Center
12:25PM 36.1633 -77.5344 218° Southwest 439 505 36,000  Level Washington Center
12:26PM 36.0700 -77.6222 217° Southwest 439 505 36,000  Level Washington Center
12:27PM 35.9725 -77.7094 216° Southwest 439 505 36,000  Level Washington Center
12:28PM 35.8708 -77.7886 212° Southwest 439 505 36,000  Level Washington Center
12:29PM 35.7714 -77.8678 213° Southwest 439 505 36,000  Level Washington Center
12:30PM 35.6697 -77.9467 212° Southwest 439 505 36,000  Level Washington Center
12:31PM 35.5700 -78.0256 213° Southwest 439 505 36,000  Level Washington Center
12:32PM 35.4664 -78.1014 211° Southwest 439 505 36,000  Level Washington Center
12:33PM 35.3664 -78.1825 213° Southwest 439 505 36,000  Level Washington Center
12:34PM 35.2603 -78.2631 212° Southwest 439 505 36,000  Level Washington Center
12:35PM 35.1606 -78.3408 213° Southwest 439 505 36,000  Level Washington Center
12:36PM 35.0797 -78.4042 213° Southwest 439 505 36,000  Level Washington Center
12:37PM 34.9692 -78.4892 212° Southwest 439 505 36,000  Level Washington Center
12:38PM 34.8692 -78.5664 212° Southwest 439 505 36,000  Level Washington Center
12:39PM 34.7608 -78.6458 211° Southwest 439 505 36,000  Level Washington Center
12:40PM 34.6158 -78.7603 213° Southwest 439 505 36,000  Level Jacksonville Center
12:41PM 34.5139 -78.8358 211° Southwest 439 505 36,000  Level Jacksonville Center
12:42PM 34.4142 -78.9158 214° Southwest 439 505 36,000  Level Jacksonville Center
12:43PM 34.3125 -78.9961 213° Southwest 439 505 36,000  Level Jacksonville Center
12:44PM 34.2103 -79.0708 211° Southwest 439 505 36,000  Level Jacksonville Center
12:45PM 34.1064 -79.1458 211° Southwest 439 505 36,000  Level Jacksonville Center
12:46PM 34.0064 -79.2228 213° Southwest 439 505 36,000  Level Jacksonville Center
12:47PM 33.9022 -79.2994 211° Southwest 439 505 36,000  Level Jacksonville Center
12:48PM 33.7897 -79.3842 212° Southwest 439 505 36,000  Level Jacksonville Center
12:49PM 33.6914 -79.4528 210° Southwest 439 505 36,000  Level Jacksonville Center
12:50PM 33.5892 -79.5292 212° Southwest 433 498 36,000  Level Jacksonville Center
12:51PM 33.4869 -79.6053 212° Southwest 433 498 36,000  Level Jacksonville Center
12:52PM 33.3825 -79.6814 211° Southwest 438 504 36,000 -60 Level Jacksonville Center
12:53PM 33.2800 -79.7544 211° Southwest 438 504 35,900 -600 Descending Jacksonville Center
12:54PM 33.1775 -79.8325 213° Southwest 438 504 34,900 -1,020 Descending Jacksonville Center
12:55PM 33.0747 -79.9056 211° Southwest 438 504 33,900 -1,020 Descending Jacksonville Center
12:56PM 32.9700 -79.9808 211° Southwest 438 504 32,900 -900 Descending Jacksonville Center
12:57PM 32.8861 -80.0453 213° Southwest 438 504 32,100 -900 Descending Jacksonville Center
12:58PM 32.7731 -80.1331 213° Southwest 443 510 31,100 -1,020 Descending Jacksonville Center
12:59PM 32.6725 -80.2125 214° Southwest 448 516 30,100 -600 Descending Jacksonville Center
01:00PM 32.5700 -80.2969 215° Southwest 448 516 30,000 -60 Descending Jacksonville Center
01:01PM 32.4653 -80.3786 213° Southwest 448 516 30,000  Level Jacksonville Center
01:02PM 32.3644 -80.4578 214° Southwest 453 521 30,000  Level Jacksonville Center
01:03PM 32.2703 -80.5511 220° Southwest 453 521 30,000  Level Jacksonville Center
01:04PM 32.1842 -80.6489 224° Southwest 442 509 30,000  Level Jacksonville Center
01:05PM 32.1003 -80.7467 225° Southwest 430 495 30,000  Level Jacksonville Center
01:06PM 32.0061 -80.8567 225° Southwest 425 489 30,000  Level Jacksonville Center
01:07PM 31.9200 -80.9517 223° Southwest 425 489 30,000 -420 Level Jacksonville Center
01:08PM 31.8269 -81.0219 213° Southwest 435 501 29,200 -1,440 Descending Jacksonville Center
01:09PM 31.6919 -81.0639 195° South 449 517 27,200 -1,920 Descending Jacksonville Center
01:10PM 31.5672 -81.1053 196° South 461 531 25,400 -2,100 Descending Jacksonville Center
01:11PM 31.4444 -81.1417 194° South 456 525 23,000 -2,160 Descending Jacksonville Center
01:12PM 31.3386 -81.1778 196° South 443 510 21,100 -2,160 Descending Jacksonville Center
01:13PM 31.2242 -81.2114 194° South 443 510 18,700 -2,340 Descending Jacksonville Center
01:14PM 31.1369 -81.2397 196° South 409 471 17,100 -2,040 Descending Jacksonville Center
01:14PM 31.1139 -81.2472 196° South 426 490 16,700 -2,520 Descending Jacksonville Center
01:15PM 31.0536 -81.2631 193° South 398 458 15,300 -2,340 Descending Jacksonville Center
01:15PM 31.0100 -81.2783 197° South 405 466 14,400 -2,340 Descending Jacksonville Center
01:16PM 30.9517 -81.2961 195° South 333 383 12,700 -2,400 Descending Jacksonville Center
01:16PM 30.9206 -81.3064 196° South 370 426 12,000 -1,980 Descending Jacksonville Center
01:17PM 30.8686 -81.3242 196° South 291 335 10,700 -1,800 Descending Jacksonville Center
01:17PM 30.8458 -81.3439 217° Southwest 330 380 10,200 -1,620 Descending Jacksonville Center
01:18PM 30.8153 -81.3978 237° Southwest 286 329 9,100 -1,500 Descending Jacksonville Center
01:18PM 30.8031 -81.4197 237° Southwest 281 323 8,700 -1,440 Descending Jacksonville Center
01:19PM 30.7764 -81.4661 236° Southwest 275 316 7,800 -1,320 Descending Jacksonville Center
01:19PM 30.7600 -81.4953 237° Southwest 281 323 7,400 -1,140 Descending Jacksonville Center
01:20PM 30.7333 -81.5417 236° Southwest 275 316 6,700 -1,020 Descending Jacksonville Center
01:20PM 30.7211 -81.5658 240° Southwest 281 323 6,400 -900 Descending Jacksonville Center
01:21PM 30.6944 -81.6122 236° Southwest 231 266 5,700 -1,020 Descending Jacksonville Center
01:21PM 30.6819 -81.6292 229° Southwest 261 300 5,400 -1,140 Descending Jacksonville Center
01:22PM 30.6575 -81.6778 240° Southwest 230 265 4,600 -1,020 Descending Jacksonville Center
01:22PM 30.6492 -81.6900 232° Southwest 243 280 4,400 -1,020 Descending Jacksonville Center
01:23PM 30.6203 -81.7364 234° Southwest 224 258 3,600 -1,020 Descending Jacksonville Center
01:23PM 30.6142 -81.7508 244° Southwest 238 274 3,400 -600 Descending Jacksonville Center
01:24PM 30.5897 -81.7994 240° Southwest 223 257 3,000 -300 Descending Jacksonville Center
01:25PM 30.5506 -81.8650 235° Southwest 215 247 2,900 -480 Descending Jacksonville Center
01:26PM 30.5003 -81.8486 164° South 220 253 2,100 -540 Descending Jacksonville Center
01:27PM 30.4622 -81.8033 134° Southeast 211 243 1,900 -600 Descending Jacksonville Center
01:28PM 30.4786 -81.7500 70° East 167 192 1,000 -840 Descending Jacksonville Center
01:29PM 30.4908 -81.7139 69° East 125 144 300 -780 Descending Jacksonville Center